Time;durP1;ratioP1;P1;durP2;ratioP2;P2;SDS_P1;SDS_P2;PMS_P1;PMS_P2;Temp;Humidity;BMP_temperature;BMP_pressure;BME280_temperature;BME280_humidity;BME280_pressure;Samples;Min_cycle;Max_cycle;Signal;HPM_P1;HPM_P2
2021/07/26 00:00:21;;;;;;;17.15;11.77;;;18.00;99.90;;;;;;5030098;28;20418;-74
2021/07/26 00:02:46;;;;;;;15.75;11.60;;;18.20;99.90;;;;;;5031352;28;20029;-74
2021/07/26 00:05:12;;;;;;;16.50;12.00;;;18.20;99.90;;;;;;5031482;28;20105;-73
2021/07/26 00:07:39;;;;;;;21.52;11.98;;;18.10;99.90;;;;;;5031744;28;20037;-73
2021/07/26 00:10:06;;;;;;;20.13;11.65;;;18.00;99.90;;;;;;5031612;28;20108;-74
2021/07/26 00:12:32;;;;;;;20.27;12.05;;;17.80;99.90;;;;;;5031702;28;20039;-74
2021/07/26 00:14:59;;;;;;;23.85;12.98;;;17.80;99.90;;;;;;5029961;28;20053;-74
2021/07/26 00:17:26;;;;;;;21.20;10.80;;;17.70;99.90;;;;;;5031542;28;20028;-74
2021/07/26 00:19:51;;;;;;;21.95;10.90;;;17.70;99.90;;;;;;5026660;28;20430;-74
2021/07/26 00:22:17;;;;;;;24.95;10.50;;;17.70;99.90;;;;;;5010544;28;20108;-73
2021/07/26 00:24:42;;;;;;;23.77;10.35;;;17.70;99.90;;;;;;5011539;28;20113;-74
2021/07/26 00:27:08;;;;;;;20.80;10.10;;;17.70;99.90;;;;;;5011806;28;20336;-74
2021/07/26 00:29:33;;;;;;;26.42;11.50;;;17.70;99.90;;;;;;5011679;28;20550;-74
2021/07/26 00:31:59;;;;;;;21.73;10.50;;;17.80;99.90;;;;;;5011585;28;20030;-74
2021/07/26 00:34:28;;;;;;;18.98;10.73;;;17.60;99.90;;;;;;5011286;28;20092;-73
2021/07/26 00:36:56;;;;;;;20.73;10.70;;;17.70;99.90;;;;;;5010345;28;20118;-73
2021/07/26 00:39:27;;;;;;;18.42;10.43;;;17.60;99.90;;;;;;5011491;28;20048;-74
2021/07/26 00:41:53;;;;;;;20.85;10.80;;;17.60;99.90;;;;;;5011619;28;20116;-74
2021/07/26 00:44:21;;;;;;;20.50;11.13;;;17.60;99.90;;;;;;5011332;28;20061;-74
2021/07/26 00:46:48;;;;;;;17.73;10.90;;;17.70;99.90;;;;;;5011474;28;20045;-73
2021/07/26 00:49:15;;;;;;;21.27;11.40;;;17.60;99.90;;;;;;5011343;28;20485;-74
2021/07/26 00:51:48;;;;;;;23.17;11.95;;;17.40;99.90;;;;;;5005375;28;20057;-73
2021/07/26 00:54:17;;;;;;;22.80;11.13;;;17.30;99.90;;;;;;5010519;28;20472;-74
2021/07/26 00:56:44;;;;;;;21.77;10.55;;;17.30;99.90;;;;;;5011426;28;20554;-73
2021/07/26 00:59:10;;;;;;;14.70;10.30;;;17.40;99.90;;;;;;5011399;28;20018;-74
2021/07/26 01:01:37;;;;;;;21.27;12.35;;;17.50;99.90;;;;;;5011313;28;20065;-74
2021/07/26 01:04:03;;;;;;;22.10;15.32;;;17.20;99.90;;;;;;5011402;28;20026;-73
2021/07/26 01:06:28;;;;;;;17.88;12.55;;;16.80;99.90;;;;;;5013581;28;20463;-74
2021/07/26 01:08:54;;;;;;;24.25;16.92;;;16.80;99.90;;;;;;5030992;28;20064;-73
2021/07/26 01:11:19;;;;;;;19.52;13.48;;;16.80;99.90;;;;;;5028971;28;20025;-74
2021/07/26 01:13:45;;;;;;;19.67;15.00;;;17.00;99.90;;;;;;5011784;28;20030;-74
2021/07/26 01:16:11;;;;;;;21.15;16.52;;;17.10;99.90;;;;;;5014539;28;20018;-74
2021/07/26 01:18:37;;;;;;;23.65;16.73;;;17.10;99.90;;;;;;5014617;28;20025;-74
2021/07/26 01:21:10;;;;;;;19.02;14.07;;;16.60;99.90;;;;;;5014599;28;20504;-74
2021/07/26 01:23:38;;;;;;;17.17;15.18;;;16.40;99.90;;;;;;5014654;28;20113;-73
2021/07/26 01:26:15;;;;;;;18.60;13.43;;;16.50;99.90;;;;;;5013091;28;20403;-73
2021/07/26 01:28:42;;;;;;;14.68;12.30;;;16.50;99.90;;;;;;5014526;28;20033;-73
2021/07/26 01:31:10;;;;;;;17.52;12.80;;;16.60;99.90;;;;;;5019729;28;20029;-73
2021/07/26 01:33:36;;;;;;;19.17;12.05;;;16.70;99.90;;;;;;5034279;28;20021;-73
2021/07/26 01:36:02;;;;;;;17.33;14.07;;;16.90;99.90;;;;;;5034004;28;20030;-73
2021/07/26 01:38:28;;;;;;;18.35;13.25;;;16.80;99.90;;;;;;5021783;28;20085;-73
2021/07/26 01:40:54;;;;;;;19.02;14.40;;;16.90;99.90;;;;;;5012880;28;20029;-73
2021/07/26 01:43:32;;;;;;;19.23;13.13;;;16.80;99.90;;;;;;5014367;28;20026;-74
2021/07/26 01:46:13;;;;;;;23.30;15.00;;;16.70;99.90;;;;;;5012994;28;20033;-73
2021/07/26 01:49:05;;;;;;;18.67;14.40;;;16.70;99.90;;;;;;5013855;28;20034;-74
2021/07/26 01:51:43;;;;;;;20.70;13.75;;;16.70;99.90;;;;;;5019872;28;20049;-73
2021/07/26 01:54:09;;;;;;;19.25;12.38;;;16.70;99.90;;;;;;5014006;28;20570;-73
2021/07/26 01:56:35;;;;;;;16.70;11.88;;;16.70;99.90;;;;;;5013812;28;20026;-74
2021/07/26 01:59:02;;;;;;;17.15;12.48;;;16.70;99.90;;;;;;5021700;28;20022;-74
2021/07/26 02:01:28;;;;;;;24.02;12.70;;;16.80;99.90;;;;;;5033672;28;20507;-74
2021/07/26 02:03:55;;;;;;;20.55;13.85;;;16.80;99.90;;;;;;5033539;28;20037;-74
2021/07/26 02:06:21;;;;;;;16.50;12.80;;;16.80;99.90;;;;;;5033461;28;20029;-74
2021/07/26 02:08:46;;;;;;;15.48;11.95;;;16.80;99.90;;;;;;5033596;28;20391;-74
2021/07/26 02:11:12;;;;;;;20.08;11.68;;;16.90;99.90;;;;;;5033562;28;20091;-74
2021/07/26 02:13:37;;;;;;;15.20;11.18;;;16.90;99.90;;;;;;5033457;28;20034;-74
2021/07/26 02:16:08;;;;;;;23.30;12.63;;;16.90;99.90;;;;;;5033249;28;20028;-74
2021/07/26 02:18:34;;;;;;;21.48;13.48;;;16.90;99.90;;;;;;5031997;28;20030;-74
2021/07/26 02:20:59;;;;;;;21.05;12.27;;;17.00;99.90;;;;;;5033284;28;20032;-74
2021/07/26 02:23:25;;;;;;;17.42;12.02;;;17.10;99.90;;;;;;5033347;28;20041;-74
2021/07/26 02:25:50;;;;;;;19.42;12.73;;;16.90;99.90;;;;;;5032797;28;20029;-74
2021/07/26 02:28:16;;;;;;;17.55;14.13;;;16.90;99.90;;;;;;5033120;28;20037;-74
2021/07/26 02:30:41;;;;;;;20.35;14.10;;;16.70;99.90;;;;;;5019034;28;20025;-74
2021/07/26 02:33:07;;;;;;;26.25;13.52;;;16.70;99.90;;;;;;5013154;28;20419;-73
2021/07/26 02:35:32;;;;;;;23.25;14.38;;;16.70;99.90;;;;;;5013786;28;20484;-73
2021/07/26 02:37:58;;;;;;;18.67;12.35;;;16.70;99.90;;;;;;5033005;28;20105;-74
2021/07/26 02:40:25;;;;;;;16.30;11.20;;;16.70;99.90;;;;;;5032837;28;20382;-74
2021/07/26 02:42:51;;;;;;;19.60;12.88;;;16.80;99.90;;;;;;5033006;28;20029;-74
2021/07/26 02:45:16;;;;;;;15.52;11.80;;;16.90;99.90;;;;;;5031598;28;20088;-73
2021/07/26 02:47:42;;;;;;;20.20;14.20;;;16.90;99.90;;;;;;5032769;28;20565;-74
2021/07/26 02:50:08;;;;;;;17.10;12.85;;;16.80;99.90;;;;;;5024075;28;20444;-74
2021/07/26 02:52:34;;;;;;;19.40;14.65;;;16.80;99.90;;;;;;5013033;28;20419;-74
2021/07/26 02:54:59;;;;;;;16.95;12.75;;;16.80;99.90;;;;;;5012662;28;20076;-74
2021/07/26 02:57:25;;;;;;;14.48;12.65;;;16.90;99.90;;;;;;5013316;28;20022;-74
2021/07/26 02:59:50;;;;;;;21.55;15.23;;;16.90;99.90;;;;;;5012755;28;20069;-74
2021/07/26 03:02:16;;;;;;;18.15;13.25;;;16.90;99.90;;;;;;5011381;28;20109;-73
2021/07/26 03:04:41;;;;;;;18.98;13.40;;;16.90;99.90;;;;;;5011232;28;20061;-74
2021/07/26 03:07:07;;;;;;;15.48;12.93;;;16.90;99.90;;;;;;5012656;28;20483;-74
2021/07/26 03:09:32;;;;;;;19.08;13.25;;;16.90;99.90;;;;;;5012548;28;20026;-74
2021/07/26 03:11:58;;;;;;;19.17;14.77;;;17.00;99.90;;;;;;5012600;28;20045;-74
2021/07/26 03:14:23;;;;;;;20.00;13.32;;;16.90;99.90;;;;;;5012365;28;20033;-73
2021/07/26 03:16:49;;;;;;;15.57;12.43;;;16.80;99.90;;;;;;5012415;28;20499;-74
2021/07/26 03:19:14;;;;;;;20.33;12.30;;;16.90;99.90;;;;;;5012488;28;20476;-74
2021/07/26 03:21:40;;;;;;;16.85;13.20;;;16.90;99.90;;;;;;5020278;28;20018;-74
2021/07/26 03:24:06;;;;;;;17.27;12.38;;;16.90;99.90;;;;;;5030849;28;20075;-74
2021/07/26 03:26:31;;;;;;;20.00;13.45;;;16.90;99.90;;;;;;5032032;28;20033;-73
2021/07/26 03:28:57;;;;;;;17.77;11.57;;;16.90;99.90;;;;;;5047271;28;20040;-74
2021/07/26 03:31:22;;;;;;;20.98;12.15;;;16.90;99.90;;;;;;5031891;28;20068;-74
2021/07/26 03:33:48;;;;;;;18.83;11.65;;;16.90;99.90;;;;;;5031041;28;20029;-74
2021/07/26 03:36:17;;;;;;;23.67;12.10;;;17.00;99.90;;;;;;5031511;28;20072;-74
2021/07/26 03:38:43;;;;;;;24.42;12.60;;;17.00;99.90;;;;;;5030407;28;20472;-74
2021/07/26 03:41:08;;;;;;;19.27;11.40;;;16.90;99.90;;;;;;5012695;28;20052;-74
2021/07/26 03:43:34;;;;;;;20.88;12.25;;;16.90;99.90;;;;;;5012583;28;20101;-74
2021/07/26 03:45:59;;;;;;;21.10;10.95;;;16.90;99.90;;;;;;5010510;28;20029;-74
2021/07/26 03:48:25;;;;;;;19.10;12.13;;;17.00;99.90;;;;;;5012054;28;20073;-73
2021/07/26 03:50:50;;;;;;;20.15;11.45;;;17.10;99.90;;;;;;5017751;28;20060;-73
2021/07/26 03:53:17;;;;;;;26.00;11.98;;;17.20;99.90;;;;;;5012000;28;20034;-73
2021/07/26 03:55:43;;;;;;;21.08;12.57;;;17.20;99.90;;;;;;5012373;28;20052;-73
2021/07/26 03:58:08;;;;;;;19.90;12.38;;;17.00;99.90;;;;;;5012471;28;20461;-72
2021/07/26 04:00:34;;;;;;;22.63;12.00;;;17.00;99.90;;;;;;5011777;28;20400;-73
2021/07/26 04:05:36;;;;;;;17.90;12.18;;;17.10;99.90;;;;;;5031738;28;20029;-73
2021/07/26 04:08:04;;;;;;;25.65;13.05;;;17.10;99.90;;;;;;5031680;28;20424;-73
2021/07/26 04:10:29;;;;;;;22.08;11.73;;;17.10;99.90;;;;;;5031716;28;20029;-73
2021/07/26 04:12:55;;;;;;;17.20;11.40;;;17.10;99.90;;;;;;5030503;28;20018;-73
2021/07/26 04:15:20;;;;;;;19.35;11.57;;;17.20;99.90;;;;;;5031530;28;20100;-73
2021/07/26 04:17:46;;;;;;;20.90;12.65;;;17.30;99.90;;;;;;5031514;28;20028;-73
2021/07/26 04:20:12;;;;;;;18.17;11.27;;;17.20;99.90;;;;;;5031436;28;20109;-73
2021/07/26 04:22:37;;;;;;;16.23;12.23;;;17.20;99.90;;;;;;5031457;28;20030;-73
2021/07/26 04:25:04;;;;;;;19.48;11.75;;;17.30;99.90;;;;;;5031318;28;20383;-73
2021/07/26 04:27:29;;;;;;;18.48;11.98;;;17.40;99.90;;;;;;5031400;28;20029;-73
2021/07/26 04:29:55;;;;;;;18.58;12.32;;;17.50;99.90;;;;;;5031280;28;20026;-73
2021/07/26 04:32:21;;;;;;;18.83;11.25;;;17.50;99.90;;;;;;5031313;28;20104;-73
2021/07/26 04:34:46;;;;;;;18.02;11.43;;;17.50;99.90;;;;;;5029932;28;20533;-73
2021/07/26 04:37:12;;;;;;;16.17;11.57;;;17.60;99.90;;;;;;5031282;28;20047;-73
2021/07/26 04:39:37;;;;;;;16.38;11.77;;;17.60;99.90;;;;;;5031366;28;20079;-72
2021/07/26 04:42:03;;;;;;;15.15;10.73;;;17.70;99.90;;;;;;5031232;28;20041;-73
2021/07/26 04:44:28;;;;;;;18.95;12.60;;;17.70;99.90;;;;;;5031123;28;20113;-73
2021/07/26 04:46:54;;;;;;;20.25;11.35;;;17.80;99.90;;;;;;5031202;28;20030;-73
2021/07/26 04:49:22;;;;;;;15.80;11.20;;;17.70;99.90;;;;;;5032024;28;20041;-73
2021/07/26 04:51:48;;;;;;;18.02;12.73;;;17.70;99.90;;;;;;5015094;28;20026;-73
2021/07/26 04:54:13;;;;;;;19.15;12.60;;;17.60;99.90;;;;;;5015237;28;20484;-73
2021/07/26 04:56:39;;;;;;;17.38;12.60;;;17.60;99.90;;;;;;5014866;28;20119;-73
2021/07/26 04:59:05;;;;;;;19.23;10.57;;;17.70;99.90;;;;;;5014943;28;20156;-73
2021/07/26 05:01:30;;;;;;;18.35;11.20;;;17.90;99.90;;;;;;5015102;28;20022;-73
2021/07/26 05:03:56;;;;;;;17.48;12.32;;;18.00;99.90;;;;;;5015105;28;20539;-73
2021/07/26 05:06:21;;;;;;;20.83;12.63;;;18.00;99.90;;;;;;5014832;28;20033;-73
2021/07/26 05:08:47;;;;;;;18.10;13.27;;;17.90;99.90;;;;;;5014910;28;20029;-73
2021/07/26 05:11:12;;;;;;;16.15;11.48;;;17.90;99.90;;;;;;5014838;28;20026;-73
2021/07/26 05:13:38;;;;;;;15.90;11.48;;;17.90;99.90;;;;;;5015033;28;20041;-73
2021/07/26 05:16:03;;;;;;;16.00;11.65;;;18.10;99.90;;;;;;5014646;28;20029;-73
2021/07/26 05:18:29;;;;;;;16.35;11.50;;;18.20;99.90;;;;;;5014611;28;20080;-73
2021/07/26 05:20:54;;;;;;;15.52;11.88;;;18.40;99.90;;;;;;5014628;28;20026;-73
2021/07/26 05:23:20;;;;;;;15.75;12.05;;;18.50;99.90;;;;;;5014682;28;20038;-73
2021/07/26 05:25:46;;;;;;;13.35;11.50;;;18.60;99.90;;;;;;5014397;28;20111;-73
2021/07/26 05:28:13;;;;;;;14.77;11.25;;;18.80;99.90;;;;;;5014565;28;20065;-73
2021/07/26 05:30:38;;;;;;;14.23;11.25;;;18.80;99.90;;;;;;5028552;28;20029;-73
2021/07/26 05:33:04;;;;;;;13.23;11.02;;;18.80;99.90;;;;;;5034389;28;20392;-72
2021/07/26 05:35:30;;;;;;;15.10;11.50;;;19.00;99.90;;;;;;5033911;28;20053;-72
2021/07/26 05:37:56;;;;;;;17.23;11.82;;;19.00;99.90;;;;;;5034087;28;20373;-72
2021/07/26 05:40:22;;;;;;;15.18;11.75;;;19.10;99.90;;;;;;5033929;28;20079;-73
2021/07/26 05:42:47;;;;;;;12.68;11.20;;;19.10;99.90;;;;;;5034126;28;20148;-73
2021/07/26 05:45:13;;;;;;;13.55;12.10;;;19.30;99.90;;;;;;5033862;28;20401;-72
2021/07/26 05:47:38;;;;;;;17.80;13.05;;;19.20;99.90;;;;;;5027825;28;20045;-73
2021/07/26 05:50:05;;;;;;;15.25;11.88;;;19.30;99.90;;;;;;5014547;28;20088;-72
2021/07/26 05:52:31;;;;;;;14.45;11.90;;;19.30;99.90;;;;;;5014191;28;20440;-73
2021/07/26 05:54:57;;;;;;;15.27;13.00;;;19.30;99.90;;;;;;5012615;28;20022;-72
2021/07/26 05:57:24;;;;;;;13.73;11.45;;;19.40;99.90;;;;;;5014006;28;20026;-72
2021/07/26 05:59:53;;;;;;;17.20;13.23;;;19.50;99.90;;;;;;5013441;28;20068;-73
2021/07/26 06:02:18;;;;;;;15.98;13.18;;;19.50;99.90;;;;;;5013964;28;20084;-73
2021/07/26 06:04:44;;;;;;;16.27;13.75;;;19.60;99.90;;;;;;5013581;28;20026;-73
2021/07/26 06:07:09;;;;;;;16.73;13.65;;;19.70;99.90;;;;;;5013908;28;20033;-73
2021/07/26 06:09:35;;;;;;;14.75;12.38;;;19.70;99.90;;;;;;5013617;28;20022;-73
2021/07/26 06:12:00;;;;;;;15.27;13.23;;;19.70;99.90;;;;;;5013628;28;20033;-73
2021/07/26 06:14:26;;;;;;;15.93;13.48;;;19.70;99.90;;;;;;5013399;28;20026;-73
2021/07/26 06:16:53;;;;;;;16.45;12.57;;;19.70;99.90;;;;;;5013729;28;20022;-73
2021/07/26 06:19:20;;;;;;;15.70;12.77;;;19.70;99.90;;;;;;5013728;28;20030;-73
2021/07/26 06:21:48;;;;;;;14.27;12.30;;;19.80;99.90;;;;;;5013682;28;20560;-73
2021/07/26 06:24:15;;;;;;;14.30;12.65;;;20.00;99.90;;;;;;5013316;28;20165;-73
2021/07/26 06:26:41;;;;;;;13.35;11.95;;;20.20;99.90;;;;;;5013208;28;20501;-73
2021/07/26 06:29:07;;;;;;;14.38;12.63;;;20.30;99.90;;;;;;5012082;28;20034;-73
2021/07/26 06:31:32;;;;;;;15.18;12.25;;;20.40;99.90;;;;;;5013394;28;20029;-73
2021/07/26 06:34:02;;;;;;;16.15;13.05;;;20.50;99.90;;;;;;5013318;28;20026;-73
2021/07/26 06:36:28;;;;;;;16.33;12.35;;;20.40;99.90;;;;;;5013147;28;20040;-73
2021/07/26 06:38:54;;;;;;;14.80;12.43;;;20.20;99.90;;;;;;5013067;28;20026;-73
2021/07/26 06:41:21;;;;;;;12.55;11.32;;;20.20;99.90;;;;;;5013250;28;20377;-73
2021/07/26 06:43:46;;;;;;;12.10;10.85;;;20.10;99.90;;;;;;5013200;28;20068;-73
2021/07/26 06:46:14;;;;;;;14.40;10.95;;;19.90;99.90;;;;;;5012986;28;20034;-73
2021/07/26 06:48:39;;;;;;;12.68;10.95;;;19.90;99.90;;;;;;5012936;28;20024;-73
2021/07/26 06:51:05;;;;;;;13.52;11.27;;;20.00;99.90;;;;;;5013053;28;20384;-73
2021/07/26 06:53:34;;;;;;;12.30;10.88;;;19.90;99.90;;;;;;5012859;28;20026;-73
2021/07/26 06:56:07;;;;;;;11.98;10.70;;;19.80;99.90;;;;;;5012801;28;20080;-73
2021/07/26 06:58:37;;;;;;;12.98;11.10;;;20.00;99.90;;;;;;5010408;28;20029;-73
2021/07/26 07:01:05;;;;;;;12.73;10.35;;;20.20;99.90;;;;;;5012901;28;20030;-73
2021/07/26 07:03:31;;;;;;;12.30;10.93;;;20.40;99.90;;;;;;5013093;28;20387;-73
2021/07/26 07:06:03;;;;;;;12.60;11.30;;;20.50;99.90;;;;;;5012447;28;20026;-73
2021/07/26 07:08:29;;;;;;;13.63;10.63;;;20.40;99.90;;;;;;5012651;28;20034;-73
2021/07/26 07:11:12;;;;;;;12.75;10.43;;;20.50;99.90;;;;;;5012213;28;20037;-73
2021/07/26 07:13:40;;;;;;;12.77;10.50;;;20.60;99.90;;;;;;5012485;28;20124;-73
2021/07/26 07:16:10;;;;;;;11.75;10.52;;;20.60;99.90;;;;;;5012392;28;20376;-73
2021/07/26 07:18:36;;;;;;;13.77;10.55;;;20.60;99.90;;;;;;5011232;28;20289;-73
2021/07/26 07:21:03;;;;;;;13.63;10.85;;;20.80;99.90;;;;;;5012634;28;20048;-73
2021/07/26 07:23:28;;;;;;;12.40;10.35;;;20.90;99.90;;;;;;5012503;28;20091;-73
2021/07/26 07:25:54;;;;;;;13.73;10.90;;;20.90;99.90;;;;;;5012197;28;20506;-73
2021/07/26 07:28:20;;;;;;;12.63;10.55;;;20.80;99.90;;;;;;5011158;28;20037;-73
2021/07/26 07:30:45;;;;;;;14.80;11.30;;;20.70;99.90;;;;;;5012140;28;20435;-73
2021/07/26 07:33:11;;;;;;;12.90;10.35;;;20.90;99.90;;;;;;5012359;28;20022;-73
2021/07/26 07:35:36;;;;;;;11.85;10.63;;;20.80;99.90;;;;;;5012115;28;20395;-73
2021/07/26 07:38:02;;;;;;;11.70;10.50;;;20.80;99.90;;;;;;5012591;28;20389;-73
2021/07/26 07:40:28;;;;;;;13.93;10.38;;;20.90;99.90;;;;;;5012094;28;20034;-73
2021/07/26 07:42:53;;;;;;;13.98;10.32;;;21.10;99.90;;;;;;5011002;28;20036;-73
2021/07/26 07:45:19;;;;;;;11.07;9.98;;;21.30;99.90;;;;;;5011946;28;20061;-73
2021/07/26 07:47:45;;;;;;;12.50;10.40;;;21.60;99.90;;;;;;5012059;28;20507;-73
2021/07/26 07:50:14;;;;;;;12.63;11.30;;;21.70;99.90;;;;;;5011660;28;20032;-73
2021/07/26 07:52:40;;;;;;;16.48;10.13;;;21.70;99.90;;;;;;5012040;28;20033;-73
2021/07/26 07:55:06;;;;;;;10.90;9.73;;;21.40;99.90;;;;;;5026723;28;20021;-73
2021/07/26 07:57:35;;;;;;;11.85;9.68;;;21.40;99.90;;;;;;5018581;28;20018;-73
2021/07/26 08:00:04;;;;;;;10.82;9.73;;;21.30;99.90;;;;;;5011758;28;20022;-73
2021/07/26 08:02:30;;;;;;;11.20;9.10;;;21.40;99.90;;;;;;5012002;28;20030;-73
2021/07/26 08:04:56;;;;;;;12.90;8.95;;;21.40;99.90;;;;;;5011737;28;20022;-73
2021/07/26 08:07:22;;;;;;;13.75;9.32;;;21.30;99.90;;;;;;5011953;28;20026;-73
2021/07/26 08:09:47;;;;;;;9.10;8.18;;;21.30;99.90;;;;;;5011717;28;20014;-73
2021/07/26 08:12:14;;;;;;;10.63;9.35;;;21.50;99.90;;;;;;5011835;28;20391;-73
2021/07/26 08:14:40;;;;;;;11.18;8.10;;;21.60;99.90;;;;;;5011487;28;20026;-73
2021/07/26 08:17:05;;;;;;;9.23;8.25;;;21.60;99.90;;;;;;5012002;28;20030;-73
2021/07/26 08:19:31;;;;;;;11.30;7.97;;;21.50;99.90;;;;;;5011623;28;20380;-73
2021/07/26 08:21:56;;;;;;;8.85;7.95;;;21.50;99.90;;;;;;5011945;28;20072;-73
2021/07/26 08:24:22;;;;;;;9.73;8.50;;;21.50;99.90;;;;;;5014815;28;20084;-73
2021/07/26 08:26:47;;;;;;;9.48;8.27;;;21.50;99.90;;;;;;5015756;28;20109;-73
2021/07/26 08:29:13;;;;;;;10.20;9.20;;;21.50;99.90;;;;;;5015630;28;20112;-73
2021/07/26 08:31:38;;;;;;;9.52;8.48;;;21.50;99.90;;;;;;5015531;28;20037;-73
2021/07/26 08:34:04;;;;;;;9.75;8.75;;;21.50;99.90;;;;;;5015834;28;20022;-73
2021/07/26 08:36:29;;;;;;;9.40;8.48;;;21.70;99.90;;;;;;5015396;28;20077;-73
2021/07/26 08:38:55;;;;;;;10.70;9.40;;;21.80;99.90;;;;;;5015210;28;20480;-73
2021/07/26 08:41:21;;;;;;;11.88;9.32;;;21.80;99.90;;;;;;5015499;28;20037;-73
2021/07/26 08:43:47;;;;;;;9.73;8.57;;;21.90;99.90;;;;;;5015249;28;20062;-73
2021/07/26 08:46:17;;;;;;;10.23;8.65;;;22.10;99.90;;;;;;5015401;28;20029;-72
2021/07/26 08:48:45;;;;;;;9.68;8.77;;;22.20;99.90;;;;;;5015284;28;20117;-73
2021/07/26 08:51:12;;;;;;;10.80;9.55;;;22.30;99.90;;;;;;5015242;28;20022;-73
2021/07/26 08:53:38;;;;;;;9.82;8.82;;;22.30;99.90;;;;;;5013872;28;20025;-73
2021/07/26 08:56:06;;;;;;;9.82;8.48;;;22.50;99.90;;;;;;5025154;28;20025;-73
2021/07/26 08:58:31;;;;;;;9.60;8.60;;;22.50;99.90;;;;;;5012639;28;20079;-73
2021/07/26 09:00:57;;;;;;;10.15;9.02;;;22.40;99.90;;;;;;5015550;28;20442;-73
2021/07/26 09:03:22;;;;;;;10.50;8.95;;;22.50;99.90;;;;;;5015080;28;20554;-73
2021/07/26 09:05:48;;;;;;;11.15;8.27;;;22.60;99.90;;;;;;5014855;28;20037;-73
2021/07/26 09:08:13;;;;;;;11.35;8.68;;;22.40;99.90;;;;;;5014881;28;20028;-73
2021/07/26 09:10:43;;;;;;;9.75;8.70;;;22.60;99.90;;;;;;5014871;28;20112;-73
2021/07/26 09:13:11;;;;;;;10.70;8.18;;;22.40;99.90;;;;;;5014765;28;20038;-73
2021/07/26 09:15:37;;;;;;;9.25;8.02;;;22.60;99.90;;;;;;5014680;28;20440;-73
2021/07/26 09:18:07;;;;;;;8.55;7.65;;;22.40;99.90;;;;;;5013583;28;20022;-73
2021/07/26 09:20:39;;;;;;;8.57;7.68;;;22.60;99.90;;;;;;5014717;28;20500;-73
2021/07/26 09:23:15;;;;;;;10.20;8.50;;;22.80;99.90;;;;;;5014985;28;20380;-73
2021/07/26 09:25:45;;;;;;;10.35;7.80;;;22.60;99.90;;;;;;5027822;28;20026;-73
2021/07/26 09:28:20;;;;;;;7.95;7.18;;;22.60;99.90;;;;;;5033237;28;20029;-73
2021/07/26 09:30:53;;;;;;;9.20;8.23;;;22.50;99.90;;;;;;5034220;28;20112;-73
2021/07/26 09:33:29;;;;;;;10.27;7.97;;;22.40;99.90;;;;;;5034273;28;20252;-73
2021/07/26 09:36:37;;;;;;;9.23;7.63;;;22.30;99.90;;;;;;5033065;28;20393;-73
2021/07/26 09:39:03;;;;;;;9.48;8.15;;;22.50;99.90;;;;;;5011861;28;20021;-73
2021/07/26 09:41:43;;;;;;;9.60;8.60;;;22.60;99.90;;;;;;5030614;28;20052;-73
2021/07/26 09:44:09;;;;;;;9.75;7.95;;;22.50;99.90;;;;;;5032695;28;20117;-73
2021/07/26 09:46:38;;;;;;;9.10;8.23;;;22.50;99.90;;;;;;5032557;28;20116;-73
2021/07/26 09:49:08;;;;;;;8.60;7.32;;;22.70;99.90;;;;;;5033789;28;20033;-73
2021/07/26 09:51:33;;;;;;;9.65;7.55;;;22.60;99.90;;;;;;5015536;28;20376;-73
2021/07/26 09:53:59;;;;;;;8.80;7.95;;;22.60;99.90;;;;;;5014014;28;20026;-73
2021/07/26 09:56:30;;;;;;;9.10;7.70;;;22.30;99.90;;;;;;5013890;28;20030;-73
2021/07/26 09:58:55;;;;;;;9.82;7.65;;;22.30;99.90;;;;;;5000879;28;20407;-73
2021/07/26 10:01:23;;;;;;;8.43;7.50;;;22.30;99.90;;;;;;5013957;28;20435;-73
2021/07/26 10:03:51;;;;;;;8.65;7.32;;;22.10;99.90;;;;;;5013925;28;20368;-73
2021/07/26 10:06:18;;;;;;;11.45;7.82;;;22.10;99.90;;;;;;5013654;28;20026;-73
2021/07/26 10:08:44;;;;;;;8.63;7.68;;;22.20;99.90;;;;;;5013783;28;20459;-73
2021/07/26 10:11:10;;;;;;;8.70;7.32;;;22.00;99.90;;;;;;5013745;28;20092;-73
2021/07/26 10:13:41;;;;;;;11.88;8.32;;;22.00;99.90;;;;;;5013712;28;20500;-73
2021/07/26 10:16:14;;;;;;;9.65;8.02;;;21.90;99.90;;;;;;5013570;28;20018;-73
2021/07/26 10:18:47;;;;;;;9.70;8.20;;;21.90;99.90;;;;;;5013589;28;20105;-74
2021/07/26 10:21:16;;;;;;;9.90;8.60;;;21.80;99.90;;;;;;5013685;28;20028;-73
2021/07/26 10:23:46;;;;;;;11.38;8.60;;;21.80;99.90;;;;;;5013506;28;20400;-73
2021/07/26 10:26:13;;;;;;;11.85;8.80;;;21.70;99.90;;;;;;5013297;28;20034;-73
2021/07/26 10:28:44;;;;;;;15.50;10.02;;;21.70;99.90;;;;;;5024503;28;20468;-73
2021/07/26 10:31:28;;;;;;;12.75;9.93;;;21.40;99.90;;;;;;5033122;28;20025;-73
2021/07/26 10:34:02;;;;;;;11.27;10.07;;;21.40;99.90;;;;;;5033097;28;20024;-73
2021/07/26 10:36:45;;;;;;;14.27;10.45;;;21.50;99.90;;;;;;5032870;28;20030;-73
2021/07/26 10:39:18;;;;;;;16.40;10.98;;;21.60;99.90;;;;;;5033033;28;20426;-73
2021/07/26 10:41:43;;;;;;;14.95;11.00;;;21.80;99.90;;;;;;5032979;28;20064;-72
2021/07/26 10:44:18;;;;;;;16.95;11.35;;;21.80;99.90;;;;;;5032828;28;20463;-72
2021/07/26 10:46:56;;;;;;;16.88;11.98;;;21.80;99.90;;;;;;5031410;28;20443;-73
2021/07/26 10:49:43;;;;;;;13.70;11.80;;;21.80;99.90;;;;;;5030579;28;20033;-73
2021/07/26 10:52:31;;;;;;;14.95;12.82;;;22.00;99.90;;;;;;5012879;28;20029;-73
2021/07/26 10:54:59;;;;;;;13.90;12.13;;;22.10;99.90;;;;;;5008985;28;20029;-73
2021/07/26 10:57:39;;;;;;;14.10;11.48;;;22.20;99.90;;;;;;5012932;28;20021;-73
2021/07/26 11:00:08;;;;;;;16.63;13.63;;;22.00;99.90;;;;;;5012897;28;20022;-73
2021/07/26 11:02:38;;;;;;;13.60;12.23;;;22.10;99.90;;;;;;5011668;28;20168;-73
2021/07/26 11:05:28;;;;;;;14.48;10.63;;;22.20;99.90;;;;;;5011247;28;20120;-73
2021/07/26 11:08:12;;;;;;;12.85;11.07;;;22.30;99.90;;;;;;5012738;28;20018;-73
2021/07/26 11:10:44;;;;;;;15.20;11.73;;;22.40;99.90;;;;;;5012623;28;20026;-73
2021/07/26 11:13:10;;;;;;;11.80;10.60;;;22.60;99.90;;;;;;5012570;28;20018;-74
2021/07/26 11:16:02;;;;;;;14.02;11.52;;;22.50;99.90;;;;;;5011273;28;20400;-73
2021/07/26 11:18:43;;;;;;;11.57;9.40;;;22.80;99.90;;;;;;5009403;28;20045;-73
2021/07/26 11:21:12;;;;;;;11.40;10.25;;;22.70;99.90;;;;;;5012462;28;20538;-73
2021/07/26 11:23:42;;;;;;;10.98;9.88;;;22.90;99.90;;;;;;5012420;28;20029;-73
2021/07/26 11:26:22;;;;;;;10.45;9.45;;;23.10;99.90;;;;;;5012260;28;20022;-73
2021/07/26 11:28:49;;;;;;;13.32;10.45;;;23.10;99.90;;;;;;5012333;28;20469;-73
2021/07/26 11:31:25;;;;;;;12.48;9.95;;;23.60;99.90;;;;;;5012669;28;20026;-73
2021/07/26 11:33:52;;;;;;;;;;;23.40;99.90;;;;;;5012765;28;20116;-73
2021/07/26 11:36:20;;;;;;;11.18;9.98;;;23.60;99.90;;;;;;5012144;28;19905;-73
2021/07/26 11:38:56;;;;;;;14.48;10.70;;;23.80;99.90;;;;;;5012059;28;20044;-73
2021/07/26 11:41:22;;;;;;;;;;;23.70;99.90;;;;;;5012718;28;20067;-73
2021/07/26 11:43:48;;;;;;;12.90;11.60;;;23.60;99.90;;;;;;5012373;28;20329;-73
2021/07/26 11:46:13;;;;;;;14.60;11.75;;;23.70;99.90;;;;;;5012159;28;20078;-73
2021/07/26 11:48:39;;;;;;;12.13;10.20;;;23.60;99.90;;;;;;5012197;28;20044;-73
2021/07/26 11:51:05;;;;;;;11.15;9.25;;;23.70;99.90;;;;;;5012672;28;20081;-73
2021/07/26 11:53:30;;;;;;;10.40;9.10;;;23.60;99.90;;;;;;5010713;28;20030;-73
2021/07/26 11:55:56;;;;;;;9.80;8.80;;;23.80;99.90;;;;;;5011865;28;20026;-73
2021/07/26 11:58:26;;;;;;;12.07;8.68;;;23.60;99.90;;;;;;5011316;28;20361;-73
2021/07/26 12:00:53;;;;;;;11.52;8.52;;;24.00;99.90;;;;;;5011945;28;20022;-73
2021/07/26 12:03:21;;;;;;;9.77;7.80;;;24.30;99.90;;;;;;5011908;28;20507;-73
2021/07/26 12:05:47;;;;;;;10.27;8.65;;;24.60;99.90;;;;;;5012191;28;20026;-73
2021/07/26 12:08:15;;;;;;;8.27;7.40;;;24.60;99.90;;;;;;5011787;28;20393;-73
2021/07/26 12:10:41;;;;;;;8.45;7.25;;;25.50;99.90;;;;;;5009361;28;20030;-74
2021/07/26 12:13:11;;;;;;;8.23;7.38;;;25.70;99.90;;;;;;5005793;28;20022;-72
2021/07/26 12:16:05;;;;;;;8.73;7.53;;;24.90;99.90;;;;;;5011764;28;20101;-74
2021/07/26 12:18:32;;;;;;;8.65;7.25;;;24.90;99.90;;;;;;5012106;28;20494;-74
2021/07/26 12:20:58;;;;;;;7.75;7.05;;;24.00;99.90;;;;;;5018445;28;20053;-74
2021/07/26 12:23:26;;;;;;;9.95;7.53;;;24.30;99.90;;;;;;5023572;28;20113;-75
2021/07/26 12:25:56;;;;;;;9.18;6.82;;;24.70;99.90;;;;;;5025019;28;20029;-73
2021/07/26 12:28:39;;;;;;;8.57;6.70;;;24.50;99.90;;;;;;5020535;28;20025;-74
2021/07/26 12:31:23;;;;;;;7.95;6.35;;;24.60;99.90;;;;;;5031388;28;20419;-73
2021/07/26 12:33:48;;;;;;;7.55;6.75;;;24.70;99.90;;;;;;5017941;28;20026;-74
2021/07/26 12:36:16;;;;;;;8.55;6.72;;;24.40;99.90;;;;;;5011549;28;20032;-73
2021/07/26 12:39:04;;;;;;;8.27;6.75;;;24.60;99.90;;;;;;5011909;28;20547;-73